Overview Statistics Trail Chart Weather Telemetry Raw packets
 

This is the latest recevied weather packets stored in our database for station/object SV9TNF-52. If no packets are shown the sender has not sent any weather packets the latest 10 day(s).

<< 79 80 81 82 83 84 85 >>
Time Temp. Humidity Pressure Rain* Wind** Luminosity Snow
1788108444 27.22° C 60% 1020.3 hPa 0 mm 1.79 m/s, 22° - -
1788108144 27.78° C 60% 1020.3 hPa 0 mm 0 m/s - -
1788107844 27.78° C 59% 1020.3 hPa 0 mm 0.45 m/s, 78° - -
1788107544 27.78° C 59% 1020.3 hPa 0 mm 1.34 m/s, 59° - -
1788107244 28.33° C 57% 1020.3 hPa 0 mm 0.89 m/s, 349° - -
1788106944 28.33° C 56% 1020.3 hPa 0 mm 0 m/s - -
1788106644 28.33° C 56% 1020.3 hPa 0 mm 1.79 m/s, 287° - -
1788106344 28.89° C 55% 1020.3 hPa 0 mm 0.89 m/s, 260° - -
1788106044 28.89° C 55% 1020.7 hPa 0 mm 0 m/s - -
1788105743 29.44° C 54% 1020.7 hPa 0 mm 0 m/s - -
1788105443 29.44° C 52% 1020.7 hPa 0 mm 0 m/s - -
1788105143 29.44° C 53% 1020.7 hPa 0 mm 0 m/s - -
1788104843 29.44° C 53% 1020.7 hPa 0 mm 1.79 m/s, 0° - -
1788104543 29.44° C 52% 1020.7 hPa 0 mm 1.34 m/s, 332° - -
1788104243 29.44° C 52% 1020.7 hPa 0 mm 1.79 m/s, 229° - -
1788103943 30° C 53% 1020.7 hPa 0 mm 1.79 m/s, 9° - -
1788103643 30° C 51% 1020.7 hPa 0 mm 1.79 m/s, 348° - -
1788103343 30.56° C 50% 1020.7 hPa 0 mm 0.45 m/s, 219° - -
1788103042 30.56° C 51% 1020.7 hPa 0 mm 2.24 m/s, 127° - -
1788102743 30.56° C 51% 1020.7 hPa 0 mm 0 m/s - -
1788102442 31.11° C 48% 1020.7 hPa 0 mm 1.79 m/s, 255° - -
1788102142 31.11° C 49% 1020.7 hPa 0 mm 0.89 m/s, 15° - -
1788101842 30.56° C 50% 1020.7 hPa 0 mm 1.79 m/s, 253° - -
1788101542 30.56° C 50% 1020.7 hPa 0 mm 3.13 m/s, 265° - -
1788101242 30.56° C 51% 1020.7 hPa 0 mm 0 m/s - -

* Rain latest hour (hover to see other rain measurements)
** Current wind speed in m/s (hover to see current wind gust speed)